sensor_id;sensor_type;location;lat;lon;timestamp;P1;durP1;ratioP1;P2;durP2;ratioP2
68089;SDS011;54880;50.986;6.990;2023-07-30T00:00:59;7.35;;;3.63;;
68089;SDS011;54880;50.986;6.990;2023-07-30T00:03:25;7.80;;;3.15;;
68089;SDS011;54880;50.986;6.990;2023-07-30T00:05:56;7.10;;;3.30;;
68089;SDS011;54880;50.986;6.990;2023-07-30T00:08:21;6.37;;;2.70;;
68089;SDS011;54880;50.986;6.990;2023-07-30T00:10:47;6.57;;;2.65;;
68089;SDS011;54880;50.986;6.990;2023-07-30T00:13:12;8.77;;;2.50;;
68089;SDS011;54880;50.986;6.990;2023-07-30T00:15:37;6.20;;;2.60;;
68089;SDS011;54880;50.986;6.990;2023-07-30T00:18:03;7.00;;;2.30;;
68089;SDS011;54880;50.986;6.990;2023-07-30T00:20:28;5.80;;;2.27;;
68089;SDS011;54880;50.986;6.990;2023-07-30T00:22:53;6.83;;;2.33;;
68089;SDS011;54880;50.986;6.990;2023-07-30T00:25:18;7.23;;;2.30;;
68089;SDS011;54880;50.986;6.990;2023-07-30T00:27:44;5.90;;;2.53;;
68089;SDS011;54880;50.986;6.990;2023-07-30T00:30:09;6.27;;;2.70;;
68089;SDS011;54880;50.986;6.990;2023-07-30T00:32:34;7.93;;;2.83;;
68089;SDS011;54880;50.986;6.990;2023-07-30T00:35:00;7.00;;;2.67;;
68089;SDS011;54880;50.986;6.990;2023-07-30T00:37:25;8.00;;;2.70;;
68089;SDS011;54880;50.986;6.990;2023-07-30T00:39:50;6.37;;;2.60;;
68089;SDS011;54880;50.986;6.990;2023-07-30T00:42:15;6.10;;;2.50;;
68089;SDS011;54880;50.986;6.990;2023-07-30T00:44:41;7.40;;;2.37;;
68089;SDS011;54880;50.986;6.990;2023-07-30T00:47:06;8.60;;;2.87;;
68089;SDS011;54880;50.986;6.990;2023-07-30T00:49:32;7.75;;;2.55;;
68089;SDS011;54880;50.986;6.990;2023-07-30T00:51:57;8.37;;;2.47;;
68089;SDS011;54880;50.986;6.990;2023-07-30T00:54:23;6.50;;;2.83;;
68089;SDS011;54880;50.986;6.990;2023-07-30T00:56:50;6.85;;;2.78;;
68089;SDS011;54880;50.986;6.990;2023-07-30T00:59:16;10.75;;;2.63;;
68089;SDS011;54880;50.986;6.990;2023-07-30T01:01:41;8.13;;;2.67;;
68089;SDS011;54880;50.986;6.990;2023-07-30T01:04:07;7.63;;;2.63;;
68089;SDS011;54880;50.986;6.990;2023-07-30T01:06:33;6.40;;;2.72;;
68089;SDS011;54880;50.986;6.990;2023-07-30T01:08:58;7.70;;;3.20;;
68089;SDS011;54880;50.986;6.990;2023-07-30T01:11:23;6.73;;;2.53;;
68089;SDS011;54880;50.986;6.990;2023-07-30T01:13:49;8.70;;;2.67;;
68089;SDS011;54880;50.986;6.990;2023-07-30T01:16:14;6.47;;;2.50;;
68089;SDS011;54880;50.986;6.990;2023-07-30T01:18:40;8.03;;;2.60;;
68089;SDS011;54880;50.986;6.990;2023-07-30T01:21:05;10.33;;;2.40;;
68089;SDS011;54880;50.986;6.990;2023-07-30T01:23:30;7.17;;;2.70;;
68089;SDS011;54880;50.986;6.990;2023-07-30T01:26:01;9.53;;;2.10;;
68089;SDS011;54880;50.986;6.990;2023-07-30T01:28:27;7.47;;;2.70;;
68089;SDS011;54880;50.986;6.990;2023-07-30T01:30:54;7.57;;;2.60;;
68089;SDS011;54880;50.986;6.990;2023-07-30T01:33:19;8.38;;;2.60;;
68089;SDS011;54880;50.986;6.990;2023-07-30T01:35:45;8.57;;;2.77;;
68089;SDS011;54880;50.986;6.990;2023-07-30T01:38:10;7.37;;;2.10;;
68089;SDS011;54880;50.986;6.990;2023-07-30T01:40:36;7.28;;;2.13;;
68089;SDS011;54880;50.986;6.990;2023-07-30T01:43:01;7.30;;;3.03;;
68089;SDS011;54880;50.986;6.990;2023-07-30T01:45:26;7.20;;;2.63;;
68089;SDS011;54880;50.986;6.990;2023-07-30T01:47:52;8.47;;;2.57;;
68089;SDS011;54880;50.986;6.990;2023-07-30T01:50:17;10.27;;;2.57;;
68089;SDS011;54880;50.986;6.990;2023-07-30T01:52:42;8.83;;;2.43;;
68089;SDS011;54880;50.986;6.990;2023-07-30T01:55:08;7.73;;;2.30;;
68089;SDS011;54880;50.986;6.990;2023-07-30T01:57:33;6.97;;;2.50;;
68089;SDS011;54880;50.986;6.990;2023-07-30T01:59:58;6.87;;;2.10;;
68089;SDS011;54880;50.986;6.990;2023-07-30T02:02:24;7.28;;;2.30;;
68089;SDS011;54880;50.986;6.990;2023-07-30T02:04:49;9.20;;;2.17;;
68089;SDS011;54880;50.986;6.990;2023-07-30T02:07:14;8.47;;;2.40;;
68089;SDS011;54880;50.986;6.990;2023-07-30T02:09:39;7.93;;;2.30;;
68089;SDS011;54880;50.986;6.990;2023-07-30T02:12:05;6.80;;;2.23;;
68089;SDS011;54880;50.986;6.990;2023-07-30T02:14:30;7.10;;;2.40;;
68089;SDS011;54880;50.986;6.990;2023-07-30T02:17:00;7.78;;;2.40;;
68089;SDS011;54880;50.986;6.990;2023-07-30T02:19:25;9.10;;;2.90;;
68089;SDS011;54880;50.986;6.990;2023-07-30T02:21:50;8.23;;;2.30;;
68089;SDS011;54880;50.986;6.990;2023-07-30T02:24:16;6.23;;;2.10;;
68089;SDS011;54880;50.986;6.990;2023-07-30T02:26:41;10.60;;;2.60;;
68089;SDS011;54880;50.986;6.990;2023-07-30T02:29:06;6.10;;;2.37;;
68089;SDS011;54880;50.986;6.990;2023-07-30T02:31:32;8.38;;;2.13;;
68089;SDS011;54880;50.986;6.990;2023-07-30T02:33:57;6.75;;;2.28;;
68089;SDS011;54880;50.986;6.990;2023-07-30T02:36:23;8.47;;;2.50;;
68089;SDS011;54880;50.986;6.990;2023-07-30T02:38:48;7.43;;;2.10;;
68089;SDS011;54880;50.986;6.990;2023-07-30T02:41:14;8.07;;;2.25;;
68089;SDS011;54880;50.986;6.990;2023-07-30T02:43:39;9.50;;;2.38;;
68089;SDS011;54880;50.986;6.990;2023-07-30T02:46:04;8.63;;;2.63;;
68089;SDS011;54880;50.986;6.990;2023-07-30T02:48:29;6.30;;;2.50;;
68089;SDS011;54880;50.986;6.990;2023-07-30T02:50:55;9.10;;;2.33;;
68089;SDS011;54880;50.986;6.990;2023-07-30T02:53:20;9.97;;;2.37;;
68089;SDS011;54880;50.986;6.990;2023-07-30T02:55:45;8.50;;;2.43;;
68089;SDS011;54880;50.986;6.990;2023-07-30T02:58:10;8.40;;;2.30;;
68089;SDS011;54880;50.986;6.990;2023-07-30T03:00:36;9.87;;;2.30;;
68089;SDS011;54880;50.986;6.990;2023-07-30T03:03:01;7.97;;;1.90;;
68089;SDS011;54880;50.986;6.990;2023-07-30T03:05:27;7.70;;;2.50;;
68089;SDS011;54880;50.986;6.990;2023-07-30T03:07:52;7.80;;;2.55;;
68089;SDS011;54880;50.986;6.990;2023-07-30T03:10:18;8.50;;;2.40;;
68089;SDS011;54880;50.986;6.990;2023-07-30T03:12:43;8.47;;;2.40;;
68089;SDS011;54880;50.986;6.990;2023-07-30T03:15:08;8.67;;;2.40;;
68089;SDS011;54880;50.986;6.990;2023-07-30T03:17:34;7.30;;;2.23;;
68089;SDS011;54880;50.986;6.990;2023-07-30T03:19:59;6.30;;;2.30;;
68089;SDS011;54880;50.986;6.990;2023-07-30T03:22:24;10.30;;;2.90;;
68089;SDS011;54880;50.986;6.990;2023-07-30T03:24:49;10.93;;;2.70;;
68089;SDS011;54880;50.986;6.990;2023-07-30T03:27:15;9.93;;;2.20;;
68089;SDS011;54880;50.986;6.990;2023-07-30T03:29:40;12.87;;;2.37;;
68089;SDS011;54880;50.986;6.990;2023-07-30T03:32:06;8.43;;;2.50;;
68089;SDS011;54880;50.986;6.990;2023-07-30T03:34:31;9.43;;;2.40;;
68089;SDS011;54880;50.986;6.990;2023-07-30T03:36:57;9.18;;;2.30;;
68089;SDS011;54880;50.986;6.990;2023-07-30T03:39:25;7.27;;;2.50;;
68089;SDS011;54880;50.986;6.990;2023-07-30T03:41:51;8.13;;;2.17;;
68089;SDS011;54880;50.986;6.990;2023-07-30T03:44:16;7.97;;;2.47;;
68089;SDS011;54880;50.986;6.990;2023-07-30T03:46:41;9.07;;;1.97;;
68089;SDS011;54880;50.986;6.990;2023-07-30T03:49:06;8.93;;;2.10;;
68089;SDS011;54880;50.986;6.990;2023-07-30T03:51:32;8.73;;;2.30;;
68089;SDS011;54880;50.986;6.990;2023-07-30T03:53:57;9.13;;;2.10;;
68089;SDS011;54880;50.986;6.990;2023-07-30T03:56:23;8.10;;;2.43;;
68089;SDS011;54880;50.986;6.990;2023-07-30T03:58:48;8.23;;;2.00;;
68089;SDS011;54880;50.986;6.990;2023-07-30T04:01:13;9.70;;;2.13;;
68089;SDS011;54880;50.986;6.990;2023-07-30T04:03:39;7.47;;;2.13;;
68089;SDS011;54880;50.986;6.990;2023-07-30T04:06:04;7.75;;;1.80;;
68089;SDS011;54880;50.986;6.990;2023-07-30T04:08:30;8.20;;;2.27;;
68089;SDS011;54880;50.986;6.990;2023-07-30T04:10:55;7.40;;;1.97;;
68089;SDS011;54880;50.986;6.990;2023-07-30T04:13:20;7.07;;;1.90;;
68089;SDS011;54880;50.986;6.990;2023-07-30T04:15:47;5.97;;;2.00;;
68089;SDS011;54880;50.986;6.990;2023-07-30T04:18:12;9.40;;;2.20;;
68089;SDS011;54880;50.986;6.990;2023-07-30T04:20:38;9.10;;;2.40;;
68089;SDS011;54880;50.986;6.990;2023-07-30T04:23:03;7.53;;;2.57;;
68089;SDS011;54880;50.986;6.990;2023-07-30T04:25:28;11.37;;;2.50;;
68089;SDS011;54880;50.986;6.990;2023-07-30T04:27:53;8.63;;;2.17;;
68089;SDS011;54880;50.986;6.990;2023-07-30T04:30:19;9.73;;;2.50;;
68089;SDS011;54880;50.986;6.990;2023-07-30T04:32:44;9.57;;;2.30;;
68089;SDS011;54880;50.986;6.990;2023-07-30T04:35:09;9.17;;;2.50;;
68089;SDS011;54880;50.986;6.990;2023-07-30T04:37:35;8.20;;;2.23;;
68089;SDS011;54880;50.986;6.990;2023-07-30T04:40:00;8.47;;;2.00;;
68089;SDS011;54880;50.986;6.990;2023-07-30T04:42:28;7.30;;;2.03;;
68089;SDS011;54880;50.986;6.990;2023-07-30T04:44:53;9.03;;;2.40;;
68089;SDS011;54880;50.986;6.990;2023-07-30T04:47:19;9.43;;;2.00;;
68089;SDS011;54880;50.986;6.990;2023-07-30T04:49:45;6.65;;;2.50;;
68089;SDS011;54880;50.986;6.990;2023-07-30T04:52:10;7.20;;;2.13;;
68089;SDS011;54880;50.986;6.990;2023-07-30T04:54:35;7.37;;;2.60;;
68089;SDS011;54880;50.986;6.990;2023-07-30T04:57:04;9.25;;;2.33;;
68089;SDS011;54880;50.986;6.990;2023-07-30T04:59:30;7.20;;;2.70;;
68089;SDS011;54880;50.986;6.990;2023-07-30T05:01:56;9.20;;;2.30;;
68089;SDS011;54880;50.986;6.990;2023-07-30T05:04:21;11.70;;;2.80;;
68089;SDS011;54880;50.986;6.990;2023-07-30T05:06:46;10.00;;;2.40;;
68089;SDS011;54880;50.986;6.990;2023-07-30T05:09:11;12.10;;;3.33;;
68089;SDS011;54880;50.986;6.990;2023-07-30T05:11:38;8.57;;;2.17;;
68089;SDS011;54880;50.986;6.990;2023-07-30T05:14:03;10.20;;;2.08;;
68089;SDS011;54880;50.986;6.990;2023-07-30T05:16:28;7.90;;;2.40;;
68089;SDS011;54880;50.986;6.990;2023-07-30T05:18:54;10.57;;;1.90;;
68089;SDS011;54880;50.986;6.990;2023-07-30T05:21:19;9.90;;;2.07;;
68089;SDS011;54880;50.986;6.990;2023-07-30T05:23:44;11.63;;;2.23;;
68089;SDS011;54880;50.986;6.990;2023-07-30T05:26:09;10.30;;;2.60;;
68089;SDS011;54880;50.986;6.990;2023-07-30T05:28:34;6.73;;;1.83;;
68089;SDS011;54880;50.986;6.990;2023-07-30T05:31:00;9.00;;;2.00;;
68089;SDS011;54880;50.986;6.990;2023-07-30T05:33:25;9.10;;;1.80;;
68089;SDS011;54880;50.986;6.990;2023-07-30T05:35:50;8.70;;;2.10;;
68089;SDS011;54880;50.986;6.990;2023-07-30T05:38:15;8.37;;;1.90;;
68089;SDS011;54880;50.986;6.990;2023-07-30T05:40:41;9.33;;;2.10;;
68089;SDS011;54880;50.986;6.990;2023-07-30T05:43:07;9.65;;;2.05;;
68089;SDS011;54880;50.986;6.990;2023-07-30T05:45:33;6.23;;;1.90;;
68089;SDS011;54880;50.986;6.990;2023-07-30T05:47:58;7.53;;;1.95;;
68089;SDS011;54880;50.986;6.990;2023-07-30T05:50:23;10.17;;;1.90;;
68089;SDS011;54880;50.986;6.990;2023-07-30T05:52:49;8.70;;;2.20;;
68089;SDS011;54880;50.986;6.990;2023-07-30T05:55:14;7.90;;;1.70;;
68089;SDS011;54880;50.986;6.990;2023-07-30T05:57:39;7.33;;;1.90;;
68089;SDS011;54880;50.986;6.990;2023-07-30T06:00:04;12.57;;;1.90;;
68089;SDS011;54880;50.986;6.990;2023-07-30T06:02:37;8.57;;;1.70;;
68089;SDS011;54880;50.986;6.990;2023-07-30T06:05:02;9.43;;;2.00;;
68089;SDS011;54880;50.986;6.990;2023-07-30T06:07:27;10.03;;;2.50;;
68089;SDS011;54880;50.986;6.990;2023-07-30T06:09:53;7.03;;;1.70;;
68089;SDS011;54880;50.986;6.990;2023-07-30T06:12:18;9.53;;;1.47;;
68089;SDS011;54880;50.986;6.990;2023-07-30T06:14:43;6.43;;;1.43;;
68089;SDS011;54880;50.986;6.990;2023-07-30T06:17:08;8.90;;;1.77;;
68089;SDS011;54880;50.986;6.990;2023-07-30T06:19:34;8.70;;;1.90;;
68089;SDS011;54880;50.986;6.990;2023-07-30T06:21:59;8.90;;;1.50;;
68089;SDS011;54880;50.986;6.990;2023-07-30T06:24:24;6.70;;;1.70;;
68089;SDS011;54880;50.986;6.990;2023-07-30T06:26:50;10.23;;;1.80;;
68089;SDS011;54880;50.986;6.990;2023-07-30T06:29:15;9.83;;;1.87;;
68089;SDS011;54880;50.986;6.990;2023-07-30T06:31:40;14.13;;;2.10;;
68089;SDS011;54880;50.986;6.990;2023-07-30T06:34:05;7.87;;;2.00;;
68089;SDS011;54880;50.986;6.990;2023-07-30T06:36:31;6.30;;;1.60;;
68089;SDS011;54880;50.986;6.990;2023-07-30T06:38:56;6.87;;;1.43;;
68089;SDS011;54880;50.986;6.990;2023-07-30T06:41:21;10.33;;;1.90;;
68089;SDS011;54880;50.986;6.990;2023-07-30T06:43:47;9.13;;;1.70;;
68089;SDS011;54880;50.986;6.990;2023-07-30T06:46:12;8.67;;;1.80;;
68089;SDS011;54880;50.986;6.990;2023-07-30T06:48:37;12.33;;;2.00;;
68089;SDS011;54880;50.986;6.990;2023-07-30T06:51:05;7.60;;;1.87;;
68089;SDS011;54880;50.986;6.990;2023-07-30T06:53:30;7.65;;;1.67;;
68089;SDS011;54880;50.986;6.990;2023-07-30T06:55:56;8.50;;;1.93;;
68089;SDS011;54880;50.986;6.990;2023-07-30T06:58:21;8.67;;;1.57;;
68089;SDS011;54880;50.986;6.990;2023-07-30T07:00:46;7.17;;;1.60;;
68089;SDS011;54880;50.986;6.990;2023-07-30T07:03:11;7.23;;;1.30;;
68089;SDS011;54880;50.986;6.990;2023-07-30T07:05:37;6.43;;;1.43;;
68089;SDS011;54880;50.986;6.990;2023-07-30T07:08:02;9.67;;;2.00;;
68089;SDS011;54880;50.986;6.990;2023-07-30T07:10:27;6.37;;;1.60;;
68089;SDS011;54880;50.986;6.990;2023-07-30T07:12:52;8.50;;;1.60;;
68089;SDS011;54880;50.986;6.990;2023-07-30T07:15:18;9.20;;;1.67;;
68089;SDS011;54880;50.986;6.990;2023-07-30T07:17:43;6.13;;;1.73;;
68089;SDS011;54880;50.986;6.990;2023-07-30T07:20:08;6.80;;;1.90;;
68089;SDS011;54880;50.986;6.990;2023-07-30T07:22:34;9.83;;;1.90;;
68089;SDS011;54880;50.986;6.990;2023-07-30T07:24:59;8.93;;;2.40;;
68089;SDS011;54880;50.986;6.990;2023-07-30T07:27:24;11.97;;;1.80;;
68089;SDS011;54880;50.986;6.990;2023-07-30T07:29:50;7.00;;;1.55;;
68089;SDS011;54880;50.986;6.990;2023-07-30T07:32:16;7.32;;;1.73;;
68089;SDS011;54880;50.986;6.990;2023-07-30T07:34:41;9.60;;;1.83;;
68089;SDS011;54880;50.986;6.990;2023-07-30T07:37:10;7.28;;;1.50;;
68089;SDS011;54880;50.986;6.990;2023-07-30T07:39:35;8.13;;;1.80;;
68089;SDS011;54880;50.986;6.990;2023-07-30T07:42:00;6.97;;;1.60;;
68089;SDS011;54880;50.986;6.990;2023-07-30T07:44:25;7.00;;;1.63;;
68089;SDS011;54880;50.986;6.990;2023-07-30T07:46:51;10.00;;;1.83;;
68089;SDS011;54880;50.986;6.990;2023-07-30T07:49:16;7.80;;;1.40;;
68089;SDS011;54880;50.986;6.990;2023-07-30T07:51:41;12.63;;;2.13;;
68089;SDS011;54880;50.986;6.990;2023-07-30T07:54:06;7.70;;;2.27;;
68089;SDS011;54880;50.986;6.990;2023-07-30T07:56:32;10.63;;;1.97;;
68089;SDS011;54880;50.986;6.990;2023-07-30T07:58:58;8.50;;;1.67;;
68089;SDS011;54880;50.986;6.990;2023-07-30T08:01:23;8.47;;;1.80;;
68089;SDS011;54880;50.986;6.990;2023-07-30T08:03:48;8.00;;;1.67;;
68089;SDS011;54880;50.986;6.990;2023-07-30T08:06:13;9.33;;;1.80;;
68089;SDS011;54880;50.986;6.990;2023-07-30T08:08:39;9.70;;;1.93;;
68089;SDS011;54880;50.986;6.990;2023-07-30T08:11:07;8.10;;;1.70;;
68089;SDS011;54880;50.986;6.990;2023-07-30T08:13:33;11.43;;;2.20;;
68089;SDS011;54880;50.986;6.990;2023-07-30T08:15:58;8.50;;;1.90;;
68089;SDS011;54880;50.986;6.990;2023-07-30T08:18:23;9.40;;;2.13;;
68089;SDS011;54880;50.986;6.990;2023-07-30T08:20:49;9.60;;;2.20;;
68089;SDS011;54880;50.986;6.990;2023-07-30T08:23:14;12.27;;;1.90;;
68089;SDS011;54880;50.986;6.990;2023-07-30T08:25:39;8.10;;;2.10;;
68089;SDS011;54880;50.986;6.990;2023-07-30T08:28:05;9.80;;;2.00;;
68089;SDS011;54880;50.986;6.990;2023-07-30T08:30:30;10.07;;;1.90;;
68089;SDS011;54880;50.986;6.990;2023-07-30T08:32:55;12.13;;;2.50;;
68089;SDS011;54880;50.986;6.990;2023-07-30T08:35:20;10.50;;;2.23;;
68089;SDS011;54880;50.986;6.990;2023-07-30T08:37:46;12.43;;;2.60;;
68089;SDS011;54880;50.986;6.990;2023-07-30T08:40:11;10.97;;;2.67;;
68089;SDS011;54880;50.986;6.990;2023-07-30T08:42:36;10.07;;;2.27;;
68089;SDS011;54880;50.986;6.990;2023-07-30T08:45:03;12.07;;;2.80;;
68089;SDS011;54880;50.986;6.990;2023-07-30T08:47:30;10.68;;;2.17;;
68089;SDS011;54880;50.986;6.990;2023-07-30T08:49:56;11.10;;;2.47;;
68089;SDS011;54880;50.986;6.990;2023-07-30T08:52:21;12.87;;;2.57;;
68089;SDS011;54880;50.986;6.990;2023-07-30T08:54:47;13.38;;;2.55;;
68089;SDS011;54880;50.986;6.990;2023-07-30T08:57:14;12.83;;;3.03;;
68089;SDS011;54880;50.986;6.990;2023-07-30T08:59:42;13.65;;;2.88;;
68089;SDS011;54880;50.986;6.990;2023-07-30T09:02:13;13.65;;;2.75;;
68089;SDS011;54880;50.986;6.990;2023-07-30T09:04:42;9.77;;;2.10;;
68089;SDS011;54880;50.986;6.990;2023-07-30T09:07:11;10.73;;;2.33;;
68089;SDS011;54880;50.986;6.990;2023-07-30T09:09:36;12.73;;;2.20;;
68089;SDS011;54880;50.986;6.990;2023-07-30T09:12:01;9.37;;;2.17;;
68089;SDS011;54880;50.986;6.990;2023-07-30T09:14:27;9.23;;;2.27;;
68089;SDS011;54880;50.986;6.990;2023-07-30T09:16:58;8.60;;;2.50;;
68089;SDS011;54880;50.986;6.990;2023-07-30T09:19:23;9.82;;;2.33;;
68089;SDS011;54880;50.986;6.990;2023-07-30T09:21:49;10.00;;;2.10;;
68089;SDS011;54880;50.986;6.990;2023-07-30T09:24:20;10.02;;;2.30;;
68089;SDS011;54880;50.986;6.990;2023-07-30T09:26:46;9.70;;;1.90;;
68089;SDS011;54880;50.986;6.990;2023-07-30T09:29:11;11.85;;;2.40;;
68089;SDS011;54880;50.986;6.990;2023-07-30T09:31:46;13.13;;;1.77;;
68089;SDS011;54880;50.986;6.990;2023-07-30T09:34:20;8.73;;;2.05;;
68089;SDS011;54880;50.986;6.990;2023-07-30T09:36:45;12.40;;;2.17;;
68089;SDS011;54880;50.986;6.990;2023-07-30T09:39:15;12.80;;;1.73;;
68089;SDS011;54880;50.986;6.990;2023-07-30T09:41:41;11.10;;;2.20;;
68089;SDS011;54880;50.986;6.990;2023-07-30T09:44:07;9.63;;;2.10;;
68089;SDS011;54880;50.986;6.990;2023-07-30T09:46:34;7.25;;;1.80;;
68089;SDS011;54880;50.986;6.990;2023-07-30T09:49:06;10.93;;;2.30;;
68089;SDS011;54880;50.986;6.990;2023-07-30T09:51:32;8.05;;;2.13;;
68089;SDS011;54880;50.986;6.990;2023-07-30T09:53:59;8.80;;;1.80;;
68089;SDS011;54880;50.986;6.990;2023-07-30T09:56:25;11.82;;;2.03;;
68089;SDS011;54880;50.986;6.990;2023-07-30T09:58:50;11.53;;;1.90;;
68089;SDS011;54880;50.986;6.990;2023-07-30T10:01:16;12.07;;;1.90;;
68089;SDS011;54880;50.986;6.990;2023-07-30T10:03:42;10.65;;;2.55;;
68089;SDS011;54880;50.986;6.990;2023-07-30T10:06:07;10.47;;;1.90;;
68089;SDS011;54880;50.986;6.990;2023-07-30T10:08:35;9.37;;;1.83;;
68089;SDS011;54880;50.986;6.990;2023-07-30T10:11:02;12.38;;;1.90;;
68089;SDS011;54880;50.986;6.990;2023-07-30T10:13:29;10.10;;;2.35;;
68089;SDS011;54880;50.986;6.990;2023-07-30T10:15:55;8.52;;;1.80;;
68089;SDS011;54880;50.986;6.990;2023-07-30T10:18:22;10.20;;;1.80;;
68089;SDS011;54880;50.986;6.990;2023-07-30T10:20:52;8.80;;;2.15;;
68089;SDS011;54880;50.986;6.990;2023-07-30T10:23:19;10.48;;;2.03;;
68089;SDS011;54880;50.986;6.990;2023-07-30T10:28:11;10.53;;;1.97;;
68089;SDS011;54880;50.986;6.990;2023-07-30T10:30:57;9.25;;;2.00;;
68089;SDS011;54880;50.986;6.990;2023-07-30T10:33:23;11.60;;;1.83;;
68089;SDS011;54880;50.986;6.990;2023-07-30T10:35:48;10.23;;;1.70;;
68089;SDS011;54880;50.986;6.990;2023-07-30T10:38:19;10.75;;;2.40;;
68089;SDS011;54880;50.986;6.990;2023-07-30T10:40:59;10.93;;;1.87;;
68089;SDS011;54880;50.986;6.990;2023-07-30T10:43:29;9.10;;;1.90;;
68089;SDS011;54880;50.986;6.990;2023-07-30T10:45:54;9.35;;;1.95;;
68089;SDS011;54880;50.986;6.990;2023-07-30T10:48:29;9.93;;;1.80;;
68089;SDS011;54880;50.986;6.990;2023-07-30T10:50:54;12.75;;;1.52;;
68089;SDS011;54880;50.986;6.990;2023-07-30T10:53:19;7.87;;;1.43;;
68089;SDS011;54880;50.986;6.990;2023-07-30T10:55:44;9.03;;;1.90;;
68089;SDS011;54880;50.986;6.990;2023-07-30T10:58:10;8.27;;;1.70;;
68089;SDS011;54880;50.986;6.990;2023-07-30T11:00:35;9.60;;;1.63;;
68089;SDS011;54880;50.986;6.990;2023-07-30T11:03:00;10.30;;;2.23;;
68089;SDS011;54880;50.986;6.990;2023-07-30T11:05:26;7.87;;;2.03;;
68089;SDS011;54880;50.986;6.990;2023-07-30T11:07:51;7.10;;;1.63;;
68089;SDS011;54880;50.986;6.990;2023-07-30T11:10:17;10.25;;;1.70;;
68089;SDS011;54880;50.986;6.990;2023-07-30T11:12:42;8.73;;;1.70;;
68089;SDS011;54880;50.986;6.990;2023-07-30T11:15:07;7.03;;;1.77;;
68089;SDS011;54880;50.986;6.990;2023-07-30T11:17:33;18.85;;;2.72;;
68089;SDS011;54880;50.986;6.990;2023-07-30T11:19:58;10.03;;;1.60;;
68089;SDS011;54880;50.986;6.990;2023-07-30T11:22:33;10.03;;;2.00;;
68089;SDS011;54880;50.986;6.990;2023-07-30T11:24:59;8.82;;;1.80;;
68089;SDS011;54880;50.986;6.990;2023-07-30T11:27:26;8.43;;;1.40;;
68089;SDS011;54880;50.986;6.990;2023-07-30T11:29:57;5.03;;;1.27;;
68089;SDS011;54880;50.986;6.990;2023-07-30T11:32:23;6.72;;;1.60;;
68089;SDS011;54880;50.986;6.990;2023-07-30T11:34:51;9.70;;;1.50;;
68089;SDS011;54880;50.986;6.990;2023-07-30T11:37:17;8.52;;;1.73;;
68089;SDS011;54880;50.986;6.990;2023-07-30T11:39:43;6.33;;;1.43;;
68089;SDS011;54880;50.986;6.990;2023-07-30T11:42:08;6.00;;;1.40;;
68089;SDS011;54880;50.986;6.990;2023-07-30T11:44:37;6.83;;;1.77;;
68089;SDS011;54880;50.986;6.990;2023-07-30T11:47:08;9.32;;;2.53;;
68089;SDS011;54880;50.986;6.990;2023-07-30T11:49:37;9.15;;;1.92;;
68089;SDS011;54880;50.986;6.990;2023-07-30T11:52:09;8.43;;;2.10;;
68089;SDS011;54880;50.986;6.990;2023-07-30T11:54:34;8.82;;;1.60;;
68089;SDS011;54880;50.986;6.990;2023-07-30T11:56:59;7.90;;;1.57;;
68089;SDS011;54880;50.986;6.990;2023-07-30T11:59:24;9.20;;;1.90;;
68089;SDS011;54880;50.986;6.990;2023-07-30T12:01:50;5.53;;;1.43;;
68089;SDS011;54880;50.986;6.990;2023-07-30T12:04:15;6.63;;;1.50;;
68089;SDS011;54880;50.986;6.990;2023-07-30T12:06:50;6.63;;;1.33;;
68089;SDS011;54880;50.986;6.990;2023-07-30T12:09:17;7.05;;;1.75;;
68089;SDS011;54880;50.986;6.990;2023-07-30T12:11:48;6.47;;;1.38;;
68089;SDS011;54880;50.986;6.990;2023-07-30T12:14:14;6.65;;;1.42;;
68089;SDS011;54880;50.986;6.990;2023-07-30T12:16:39;6.97;;;1.63;;
68089;SDS011;54880;50.986;6.990;2023-07-30T12:19:05;8.27;;;1.70;;
68089;SDS011;54880;50.986;6.990;2023-07-30T12:21:30;8.30;;;1.43;;
68089;SDS011;54880;50.986;6.990;2023-07-30T12:23:55;8.27;;;1.70;;
68089;SDS011;54880;50.986;6.990;2023-07-30T12:26:20;8.90;;;1.80;;
68089;SDS011;54880;50.986;6.990;2023-07-30T12:28:46;8.37;;;1.50;;
68089;SDS011;54880;50.986;6.990;2023-07-30T12:31:11;8.43;;;1.43;;
68089;SDS011;54880;50.986;6.990;2023-07-30T12:33:36;7.70;;;1.43;;
68089;SDS011;54880;50.986;6.990;2023-07-30T12:36:01;7.60;;;1.37;;
68089;SDS011;54880;50.986;6.990;2023-07-30T12:38:27;8.37;;;1.40;;
68089;SDS011;54880;50.986;6.990;2023-07-30T12:40:52;8.47;;;1.87;;
68089;SDS011;54880;50.986;6.990;2023-07-30T12:43:17;7.00;;;1.50;;
68089;SDS011;54880;50.986;6.990;2023-07-30T12:45:46;7.55;;;1.30;;
68089;SDS011;54880;50.986;6.990;2023-07-30T12:48:11;10.20;;;1.53;;
68089;SDS011;54880;50.986;6.990;2023-07-30T12:50:36;8.10;;;1.60;;
68089;SDS011;54880;50.986;6.990;2023-07-30T12:53:02;6.63;;;1.37;;
68089;SDS011;54880;50.986;6.990;2023-07-30T12:55:27;9.27;;;1.83;;
68089;SDS011;54880;50.986;6.990;2023-07-30T12:57:52;7.33;;;1.67;;
68089;SDS011;54880;50.986;6.990;2023-07-30T13:00:17;8.93;;;1.50;;
68089;SDS011;54880;50.986;6.990;2023-07-30T13:02:43;10.20;;;1.50;;
68089;SDS011;54880;50.986;6.990;2023-07-30T13:05:08;7.43;;;1.50;;
68089;SDS011;54880;50.986;6.990;2023-07-30T13:07:33;8.32;;;1.83;;
68089;SDS011;54880;50.986;6.990;2023-07-30T13:10:17;8.50;;;1.55;;
68089;SDS011;54880;50.986;6.990;2023-07-30T13:12:42;7.95;;;1.60;;
68089;SDS011;54880;50.986;6.990;2023-07-30T13:15:07;9.60;;;1.95;;
68089;SDS011;54880;50.986;6.990;2023-07-30T13:17:33;7.88;;;1.70;;
68089;SDS011;54880;50.986;6.990;2023-07-30T13:19:59;11.80;;;2.03;;
68089;SDS011;54880;50.986;6.990;2023-07-30T13:22:24;6.10;;;1.60;;
68089;SDS011;54880;50.986;6.990;2023-07-30T13:24:49;7.95;;;1.85;;
68089;SDS011;54880;50.986;6.990;2023-07-30T13:27:16;10.73;;;2.00;;
68089;SDS011;54880;50.986;6.990;2023-07-30T13:29:42;8.20;;;1.80;;
68089;SDS011;54880;50.986;6.990;2023-07-30T13:32:07;10.03;;;1.90;;
68089;SDS011;54880;50.986;6.990;2023-07-30T13:34:33;9.83;;;1.90;;
68089;SDS011;54880;50.986;6.990;2023-07-30T13:36:58;7.77;;;1.77;;
68089;SDS011;54880;50.986;6.990;2023-07-30T13:39:23;8.23;;;1.57;;
68089;SDS011;54880;50.986;6.990;2023-07-30T13:41:48;9.50;;;1.80;;
68089;SDS011;54880;50.986;6.990;2023-07-30T13:44:14;6.13;;;1.60;;
68089;SDS011;54880;50.986;6.990;2023-07-30T13:46:39;8.30;;;1.80;;
68089;SDS011;54880;50.986;6.990;2023-07-30T13:49:05;10.65;;;1.50;;
68089;SDS011;54880;50.986;6.990;2023-07-30T13:51:31;6.77;;;1.50;;
68089;SDS011;54880;50.986;6.990;2023-07-30T13:54:00;8.00;;;1.50;;
68089;SDS011;54880;50.986;6.990;2023-07-30T13:56:26;9.07;;;2.00;;
68089;SDS011;54880;50.986;6.990;2023-07-30T13:58:52;7.20;;;1.70;;
68089;SDS011;54880;50.986;6.990;2023-07-30T14:01:17;11.13;;;1.73;;
68089;SDS011;54880;50.986;6.990;2023-07-30T14:03:43;9.33;;;2.17;;
68089;SDS011;54880;50.986;6.990;2023-07-30T14:06:08;8.87;;;1.80;;
68089;SDS011;54880;50.986;6.990;2023-07-30T14:08:33;8.73;;;2.20;;
68089;SDS011;54880;50.986;6.990;2023-07-30T14:10:59;7.53;;;1.70;;
68089;SDS011;54880;50.986;6.990;2023-07-30T14:13:25;5.07;;;1.40;;
68089;SDS011;54880;50.986;6.990;2023-07-30T14:15:50;6.27;;;1.30;;
68089;SDS011;54880;50.986;6.990;2023-07-30T14:18:16;7.28;;;1.50;;
68089;SDS011;54880;50.986;6.990;2023-07-30T14:20:41;5.75;;;1.58;;
68089;SDS011;54880;50.986;6.990;2023-07-30T14:23:06;8.63;;;1.80;;
68089;SDS011;54880;50.986;6.990;2023-07-30T14:25:32;8.63;;;1.90;;
68089;SDS011;54880;50.986;6.990;2023-07-30T14:27:57;10.13;;;1.70;;
68089;SDS011;54880;50.986;6.990;2023-07-30T14:30:23;8.05;;;1.55;;
68089;SDS011;54880;50.986;6.990;2023-07-30T14:32:48;8.60;;;1.50;;
68089;SDS011;54880;50.986;6.990;2023-07-30T14:35:13;6.30;;;1.40;;
68089;SDS011;54880;50.986;6.990;2023-07-30T14:37:39;7.60;;;1.37;;
68089;SDS011;54880;50.986;6.990;2023-07-30T14:40:04;7.50;;;1.73;;